^^
Station Historical Data
Daily Summary for January 24, 2018 Units:  English    Metric   Both
« Previous Day
Next Day »
Daily Weekly Monthly Yearly Custom
  High: Low: Average:
Temperature: TemperatureF °F 48.9 °F 59.3 °F
Dew Point: DewpointF °F 37.1 °F 42.3 °F
Humidity: Humidity% 30% 56%
Wind Speed: WindSpeedMPHmph 0.0mph 0mph
Wind Gust: WindSpeedGustMPHmph - -
Wind- - North
Pressure: PressureIn in 30.11 in -
Precipitation: 0.00 in    
Historical Graphs
 
 
Tabular Data for January 24, 2018
Time Temperature Dew Point Pressure Wind Wind Speed Wind Gust Humidity Rainfall Rate (Hourly) solar Conditions
TemperatureF °F DewpointF °F PressureIn in Calm     Humidity% HourlyPrecipIn in SolarRadiationWatts/m^2 W/m2 Conditions
00:01 59.0 °F 55.8 °F 30.11 in Calm     89% 0.00 in 0.0 W/m2 RA
00:06 59.0 °F 55.8 °F 30.11 in Calm     89% 0.00 in 0.0 W/m2 RA
00:11 59.0 °F 55.8 °F 30.11 in Calm     89% 0.00 in 0.0 W/m2 CLR
00:21 59.0 °F 55.8 °F 30.11 in Calm     89% 0.00 in 0.0 W/m2 CLR
00:26 59.0 °F 55.8 °F 30.11 in Calm     89% 0.00 in 0.0 W/m2 CLR
00:31 59.0 °F 55.8 °F 30.11 in Calm     89% 0.00 in 0.0 W/m2 CLR
00:36 59.0 °F 55.8 °F 30.11 in Calm     89% 0.00 in 0.0 W/m2 CLR
00:41 59.0 °F 55.8 °F 30.11 in Calm     89% 0.00 in 0.0 W/m2 CLR
00:46 59.0 °F 55.8 °F 30.11 in Calm     89% 0.00 in 0.0 W/m2 CLR
00:56 59.0 °F 55.8 °F 30.11 in Calm     89% 0.00 in 0.0 W/m2 CLR
01:01 60.1 °F 51.0 °F 30.12 in Calm     72% 0.00 in 0.0 W/m2 CLR
01:06 60.1 °F 51.0 °F 30.12 in Calm     72% 0.00 in 0.0 W/m2 CLR
01:11 60.1 °F 51.0 °F 30.12 in Calm     72% 0.00 in 0.0 W/m2 CLR
01:16 60.1 °F 51.0 °F 30.12 in Calm     72% 0.00 in 0.0 W/m2 CLR
01:21 60.1 °F 51.0 °F 30.12 in Calm     72% 0.00 in 0.0 W/m2 CLR
01:31 60.1 °F 51.0 °F 30.12 in Calm     72% 0.00 in 0.0 W/m2 CLR
01:36 60.1 °F 51.0 °F 30.12 in Calm     72% 0.00 in 0.0 W/m2 CLR
01:41 60.1 °F 51.0 °F 30.12 in Calm     72% 0.00 in 0.0 W/m2 CLR
01:46 60.1 °F 51.0 °F 30.12 in Calm     72% 0.00 in 0.0 W/m2 CLR
01:51 60.1 °F 51.0 °F 30.12 in Calm     72% 0.00 in 0.0 W/m2 CLR
01:56 60.1 °F 51.0 °F 30.12 in Calm     72% 0.00 in 0.0 W/m2 CLR
02:01 55.9 °F 47.8 °F 30.13 in Calm     74% 0.00 in 0.0 W/m2 CLR
02:06 55.9 °F 47.8 °F 30.13 in Calm     74% 0.00 in 0.0 W/m2 CLR
02:11 55.9 °F 47.8 °F 30.13 in Calm     74% 0.00 in 0.0 W/m2 CLR
02:16 55.9 °F 47.8 °F 30.13 in Calm     74% 0.00 in 0.0 W/m2 CLR
02:21 55.9 °F 47.8 °F 30.13 in Calm     74% 0.00 in 0.0 W/m2 CLR
02:26 55.9 °F 47.8 °F 30.13 in Calm     74% 0.00 in 0.0 W/m2 CLR
02:36 55.9 °F 47.8 °F 30.13 in Calm     74% 0.00 in 0.0 W/m2 CLR
02:46 55.9 °F 47.8 °F 30.13 in Calm     74% 0.00 in 0.0 W/m2 CLR
02:51 55.9 °F 47.8 °F 30.13 in Calm     74% 0.00 in 0.0 W/m2 CLR
02:56 55.9 °F 47.8 °F 30.13 in Calm     74% 0.00 in 0.0 W/m2 CLR
03:01 55.0 °F 44.7 °F 30.13 in Calm     68% 0.00 in 0.0 W/m2 CLR
03:06 55.0 °F 44.7 °F 30.13 in Calm     68% 0.00 in 0.0 W/m2 CLR
03:11 55.0 °F 44.7 °F 30.13 in Calm     68% 0.00 in 0.0 W/m2 CLR
03:16 55.0 °F 44.7 °F 30.13 in Calm     68% 0.00 in 0.0 W/m2 CLR
03:21 55.0 °F 44.7 °F 30.13 in Calm     68% 0.00 in 0.0 W/m2 CLR
03:26 55.0 °F 44.7 °F 30.13 in Calm     68% 0.00 in 0.0 W/m2 CLR
03:31 55.0 °F 44.7 °F 30.13 in Calm     68% 0.00 in 0.0 W/m2 CLR
03:36 55.0 °F 44.7 °F 30.13 in Calm     68% 0.00 in 0.0 W/m2 CLR
03:46 55.0 °F 44.7 °F 30.13 in Calm     68% 0.00 in 0.0 W/m2 CLR
03:51 55.0 °F 44.7 °F 30.13 in Calm     68% 0.00 in 0.0 W/m2 CLR
03:56 55.0 °F 44.7 °F 30.13 in Calm     68% 0.00 in 0.0 W/m2 CLR
04:01 53.1 °F 44.6 °F 30.14 in Calm     73% 0.00 in 0.0 W/m2 CLR
04:06 53.1 °F 44.6 °F 30.14 in Calm     73% 0.00 in 0.0 W/m2 CLR
04:11 53.1 °F 44.6 °F 30.14 in Calm     73% 0.00 in 0.0 W/m2 CLR
04:16 53.1 °F 44.6 °F 30.14 in Calm     73% 0.00 in 0.0 W/m2 CLR
04:21 53.1 °F 44.6 °F 30.14 in Calm     73% 0.00 in 0.0 W/m2 CLR
04:31 53.1 °F 44.6 °F 30.14 in Calm     73% 0.00 in 0.0 W/m2 CLR
04:36 53.1 °F 44.6 °F 30.14 in Calm     73% 0.00 in 0.0 W/m2 CLR
04:41 53.1 °F 44.6 °F 30.14 in Calm     73% 0.00 in 0.0 W/m2 CLR
04:46 53.1 °F 44.6 °F 30.14 in Calm     73% 0.00 in 0.0 W/m2 CLR
04:51 53.1 °F 44.6 °F 30.14 in Calm     73% 0.00 in 0.0 W/m2 CLR
04:56 53.1 °F 44.6 °F 30.14 in Calm     73% 0.00 in 0.0 W/m2 CLR
05:01 52.0 °F 42.9 °F 30.14 in Calm     71% 0.00 in 0.0 W/m2 CLR
05:06 52.0 °F 42.9 °F 30.14 in Calm     71% 0.00 in 0.0 W/m2 CLR
05:11 52.0 °F 42.9 °F 30.14 in Calm     71% 0.00 in 0.0 W/m2 CLR
05:16 52.0 °F 42.9 °F 30.14 in Calm     71% 0.00 in 0.0 W/m2 CLR
05:21 52.0 °F 42.9 °F 30.14 in Calm     71% 0.00 in 0.0 W/m2 CLR
05:26 52.0 °F 42.9 °F 30.14 in Calm     71% 0.00 in 0.0 W/m2 CLR
05:31 52.0 °F 42.9 °F 30.14 in Calm     71% 0.00 in 0.0 W/m2 CLR
05:36 52.0 °F 42.9 °F 30.14 in Calm     71% 0.00 in 0.0 W/m2 CLR
05:41 52.0 °F 42.9 °F 30.14 in Calm     71% 0.00 in 0.0 W/m2 CLR
05:46 52.0 °F 42.9 °F 30.14 in Calm     71% 0.00 in 0.0 W/m2 CLR
05:51 52.0 °F 42.9 °F 30.14 in Calm     71% 0.00 in 0.0 W/m2 CLR
05:56 52.0 °F 42.9 °F 30.14 in Calm     71% 0.00 in 0.0 W/m2 CLR
06:01 50.0 °F 42.0 °F 30.16 in Calm     74% 0.00 in 0.0 W/m2 CLR
06:06 50.0 °F 42.0 °F 30.16 in Calm     74% 0.00 in 0.0 W/m2 CLR
06:11 50.0 °F 42.0 °F 30.16 in Calm     74% 0.00 in 0.0 W/m2 CLR
06:16 50.0 °F 42.0 °F 30.16 in Calm     74% 0.00 in 0.0 W/m2 CLR
06:21 50.0 °F 42.0 °F 30.16 in Calm     74% 0.00 in 0.0 W/m2 CLR
06:26 50.0 °F 42.0 °F 30.16 in Calm     74% 0.00 in 0.0 W/m2 CLR
06:31 50.0 °F 42.0 °F 30.16 in Calm     74% 0.00 in 0.0 W/m2 CLR
06:36 50.0 °F 42.0 °F 30.16 in Calm     74% 0.00 in 0.0 W/m2 CLR
06:41 50.0 °F 42.0 °F 30.16 in Calm     74% 0.00 in 0.0 W/m2 CLR
06:46 50.0 °F 42.0 °F 30.16 in Calm     74% 0.00 in 0.0 W/m2 CLR
06:51 50.0 °F 42.0 °F 30.16 in Calm     74% 0.00 in 0.0 W/m2 CLR
06:56 50.0 °F 42.0 °F 30.16 in Calm     74% 0.00 in 0.0 W/m2 CLR
07:01 48.9 °F 42.0 °F 30.17 in Calm     77% 0.00 in 0.0 W/m2 CLR
07:06 48.9 °F 42.0 °F 30.17 in Calm     77% 0.00 in 0.0 W/m2 CLR
07:11 48.9 °F 42.0 °F 30.17 in Calm     77% 0.00 in 0.0 W/m2 CLR
07:16 48.9 °F 42.0 °F 30.17 in Calm     77% 0.00 in 0.0 W/m2 CLR
07:21 48.9 °F 42.0 °F 30.17 in Calm     77% 0.00 in 0.0 W/m2 CLR
07:26 48.9 °F 42.0 °F 30.17 in Calm     77% 0.00 in 0.0 W/m2 CLR
07:31 48.9 °F 42.0 °F 30.17 in Calm     77% 0.00 in 0.0 W/m2 CLR
07:36 48.9 °F 42.0 °F 30.17 in Calm     77% 0.00 in 0.0 W/m2 CLR
07:41 48.9 °F 42.0 °F 30.17 in Calm     77% 0.00 in 0.0 W/m2 CLR
07:46 48.9 °F 42.0 °F 30.17 in Calm     77% 0.00 in 0.0 W/m2 CLR
07:51 48.9 °F 42.0 °F 30.17 in Calm     77% 0.00 in 0.0 W/m2 CLR
07:56 48.9 °F 42.0 °F 30.17 in Calm     77% 0.00 in 0.0 W/m2 CLR
08:01 51.1 °F 40.9 °F 30.18 in Calm     68% 0.00 in 0.0 W/m2 CLR
08:06 51.1 °F 40.9 °F 30.18 in Calm     68% 0.00 in 0.0 W/m2 CLR
08:11 51.1 °F 40.9 °F 30.18 in Calm     68% 0.00 in 0.0 W/m2 CLR
08:16 51.1 °F 40.9 °F 30.18 in Calm     68% 0.00 in 0.0 W/m2 CLR
08:21 51.1 °F 40.9 °F 30.18 in Calm     68% 0.00 in 0.0 W/m2 CLR
08:26 51.1 °F 40.9 °F 30.18 in Calm     68% 0.00 in 0.0 W/m2 CLR
08:31 51.1 °F 40.9 °F 30.18 in Calm     68% 0.00 in 0.0 W/m2 CLR
08:36 51.1 °F 40.9 °F 30.18 in Calm     68% 0.00 in 0.0 W/m2 CLR
08:41 51.1 °F 40.9 °F 30.18 in Calm     68% 0.00 in 0.0 W/m2 CLR
08:51 51.1 °F 40.9 °F 30.18 in Calm     68% 0.00 in 0.0 W/m2 CLR
08:56 51.1 °F 40.9 °F 30.18 in Calm     68% 0.00 in 0.0 W/m2 CLR
09:01 55.0 °F 38.7 °F 30.21 in Calm     54% 0.00 in 0.0 W/m2 CLR
09:06 55.0 °F 38.7 °F 30.21 in Calm     54% 0.00 in 0.0 W/m2 CLR
09:11 55.0 °F 38.7 °F 30.21 in Calm     54% 0.00 in 0.0 W/m2 CLR
09:16 55.0 °F 38.7 °F 30.21 in Calm     54% 0.00 in 0.0 W/m2 CLR
09:21 55.0 °F 38.7 °F 30.21 in Calm     54% 0.00 in 0.0 W/m2 CLR
09:26 55.0 °F 38.7 °F 30.21 in Calm     54% 0.00 in 0.0 W/m2 CLR
09:31 55.0 °F 38.7 °F 30.21 in Calm     54% 0.00 in 0.0 W/m2 CLR
09:36 55.0 °F 38.7 °F 30.21 in Calm     54% 0.00 in 0.0 W/m2 CLR
09:41 55.0 °F 38.7 °F 30.21 in Calm     54% 0.00 in 0.0 W/m2 CLR
09:46 55.0 °F 38.7 °F 30.21 in Calm     54% 0.00 in 0.0 W/m2 CLR
09:51 55.0 °F 38.7 °F 30.21 in Calm     54% 0.00 in 0.0 W/m2 CLR
09:56 55.0 °F 38.7 °F 30.21 in Calm     54% 0.00 in 0.0 W/m2 CLR
10:01 59.0 °F 39.9 °F 30.22 in Calm     49% 0.00 in 0.0 W/m2 CLR
10:06 59.0 °F 39.9 °F 30.22 in Calm     49% 0.00 in 0.0 W/m2 CLR
10:11 59.0 °F 39.9 °F 30.22 in Calm     49% 0.00 in 0.0 W/m2 CLR
10:16 59.0 °F 39.9 °F 30.22 in Calm     49% 0.00 in 0.0 W/m2 CLR
10:26 59.0 °F 39.9 °F 30.22 in Calm     49% 0.00 in 0.0 W/m2 CLR
10:31 59.0 °F 39.9 °F 30.22 in Calm     49% 0.00 in 0.0 W/m2 CLR
10:41 59.0 °F 39.9 °F 30.22 in Calm     49% 0.00 in 0.0 W/m2 CLR
10:46 59.0 °F 39.9 °F 30.22 in Calm     49% 0.00 in 0.0 W/m2 CLR
10:51 59.0 °F 39.9 °F 30.22 in Calm     49% 0.00 in 0.0 W/m2 CLR
11:01 63.0 °F 40.7 °F 30.21 in Calm     44% 0.00 in 0.0 W/m2 CLR
11:06 63.0 °F 40.7 °F 30.21 in Calm     44% 0.00 in 0.0 W/m2 CLR
11:11 63.0 °F 40.7 °F 30.21 in Calm     44% 0.00 in 0.0 W/m2 CLR
11:21 63.0 °F 40.7 °F 30.21 in Calm     44% 0.00 in 0.0 W/m2 CLR
11:26 63.0 °F 40.7 °F 30.21 in Calm     44% 0.00 in 0.0 W/m2 CLR
11:31 63.0 °F 40.7 °F 30.21 in Calm     44% 0.00 in 0.0 W/m2 CLR
11:36 63.0 °F 40.7 °F 30.21 in Calm     44% 0.00 in 0.0 W/m2 CLR
11:41 63.0 °F 40.7 °F 30.21 in Calm     44% 0.00 in 0.0 W/m2 CLR
11:46 63.0 °F 40.7 °F 30.21 in Calm     44% 0.00 in 0.0 W/m2 CLR
11:51 63.0 °F 40.7 °F 30.21 in Calm     44% 0.00 in 0.0 W/m2 CLR
12:01 66.0 °F 39.7 °F 30.19 in Calm     38% 0.00 in 0.0 W/m2 CLR
12:06 66.0 °F 39.7 °F 30.19 in Calm     38% 0.00 in 0.0 W/m2 CLR
12:16 66.0 °F 39.7 °F 30.19 in Calm     38% 0.00 in 0.0 W/m2 CLR
12:26 66.0 °F 39.7 °F 30.19 in Calm     38% 0.00 in 0.0 W/m2 CLR
12:31 66.0 °F 39.7 °F 30.19 in Calm     38% 0.00 in 0.0 W/m2 CLR
12:36 66.0 °F 39.7 °F 30.19 in Calm     38% 0.00 in 0.0 W/m2 CLR
12:46 66.0 °F 39.7 °F 30.19 in Calm     38% 0.00 in 0.0 W/m2 CLR
12:51 66.0 °F 39.7 °F 30.19 in Calm     38% 0.00 in 0.0 W/m2 CLR
13:01 69.1 °F 41.7 °F 30.17 in Calm     37% 0.00 in 0.0 W/m2 CLR
13:06 69.1 °F 41.7 °F 30.17 in Calm     37% 0.00 in 0.0 W/m2 CLR
13:11 69.1 °F 41.7 °F 30.17 in Calm     37% 0.00 in 0.0 W/m2 CLR
13:16 69.1 °F 41.7 °F 30.17 in Calm     37% 0.00 in 0.0 W/m2 CLR
13:21 69.1 °F 41.7 °F 30.17 in Calm     37% 0.00 in 0.0 W/m2 CLR
13:26 69.1 °F 41.7 °F 30.17 in Calm     37% 0.00 in 0.0 W/m2 CLR
13:31 69.1 °F 41.7 °F 30.17 in Calm     37% 0.00 in 0.0 W/m2 CLR
13:41 69.1 °F 41.7 °F 30.17 in Calm     37% 0.00 in 0.0 W/m2 CLR
13:46 69.1 °F 41.7 °F 30.17 in Calm     37% 0.00 in 0.0 W/m2 CLR
13:51 69.1 °F 41.7 °F 30.17 in Calm     37% 0.00 in 0.0 W/m2 CLR
13:56 69.1 °F 41.7 °F 30.17 in Calm     37% 0.00 in 0.0 W/m2 CLR
14:01 69.1 °F 39.5 °F 30.14 in Calm     34% 0.00 in 0.0 W/m2 CLR
14:06 69.1 °F 39.5 °F 30.14 in Calm     34% 0.00 in 0.0 W/m2 CLR
14:16 69.1 °F 39.5 °F 30.14 in Calm     34% 0.00 in 0.0 W/m2 CLR
14:21 69.1 °F 39.5 °F 30.14 in Calm     34% 0.00 in 0.0 W/m2 CLR
14:26 69.1 °F 39.5 °F 30.14 in Calm     34% 0.00 in 0.0 W/m2 CLR
14:31 69.1 °F 39.5 °F 30.14 in Calm     34% 0.00 in 0.0 W/m2 CLR
14:36 69.1 °F 39.5 °F 30.14 in Calm     34% 0.00 in 0.0 W/m2 CLR
14:41 69.1 °F 39.5 °F 30.14 in Calm     34% 0.00 in 0.0 W/m2 CLR
14:46 69.1 °F 39.5 °F 30.14 in Calm     34% 0.00 in 0.0 W/m2 CLR
14:51 69.1 °F 39.5 °F 30.14 in Calm     34% 0.00 in 0.0 W/m2 CLR
14:56 69.1 °F 39.5 °F 30.14 in Calm     34% 0.00 in 0.0 W/m2 CLR
15:01 70.0 °F 38.8 °F 30.14 in Calm     32% 0.00 in 0.0 W/m2 CLR
15:06 70.0 °F 38.8 °F 30.14 in Calm     32% 0.00 in 0.0 W/m2 CLR
15:11 70.0 °F 38.8 °F 30.14 in Calm     32% 0.00 in 0.0 W/m2 CLR
15:16 70.0 °F 38.8 °F 30.14 in Calm     32% 0.00 in 0.0 W/m2 CLR
15:21 70.0 °F 38.8 °F 30.14 in Calm     32% 0.00 in 0.0 W/m2 CLR
15:31 70.0 °F 38.8 °F 30.14 in Calm     32% 0.00 in 0.0 W/m2 CLR
15:36 70.0 °F 38.8 °F 30.14 in Calm     32% 0.00 in 0.0 W/m2 CLR
15:37 70.0 °F 38.8 °F 30.14 in Calm     32% 0.00 in 0.0 W/m2 CLR
15:42 70.0 °F 38.8 °F 30.14 in Calm     32% 0.00 in 0.0 W/m2 CLR
15:47 70.0 °F 38.8 °F 30.14 in Calm     32% 0.00 in 0.0 W/m2 CLR
15:52 70.0 °F 38.8 °F 30.14 in Calm     32% 0.00 in 0.0 W/m2 CLR
15:57 70.0 °F 38.8 °F 30.14 in Calm     32% 0.00 in 0.0 W/m2 CLR
16:02 70.0 °F 37.1 °F 30.15 in Calm     30% 0.00 in 0.0 W/m2 CLR
16:07 70.0 °F 37.1 °F 30.15 in Calm     30% 0.00 in 0.0 W/m2 CLR
16:12 70.0 °F 37.1 °F 30.15 in Calm     30% 0.00 in 0.0 W/m2 CLR
16:17 70.0 °F 37.1 °F 30.15 in Calm     30% 0.00 in 0.0 W/m2 CLR
16:22 70.0 °F 37.1 °F 30.15 in Calm     30% 0.00 in 0.0 W/m2 CLR
16:27 70.0 °F 37.1 °F 30.15 in Calm     30% 0.00 in 0.0 W/m2 CLR
16:32 70.0 °F 37.1 °F 30.15 in Calm     30% 0.00 in 0.0 W/m2 CLR
16:37 70.0 °F 37.1 °F 30.15 in Calm     30% 0.00 in 0.0 W/m2 CLR
16:42 70.0 °F 37.1 °F 30.15 in Calm     30% 0.00 in 0.0 W/m2 CLR
16:47 70.0 °F 37.1 °F 30.15 in Calm     30% 0.00 in 0.0 W/m2 CLR
16:52 70.0 °F 37.1 °F 30.15 in Calm     30% 0.00 in 0.0 W/m2 CLR
16:57 70.0 °F 37.1 °F 30.15 in Calm     30% 0.00 in 0.0 W/m2 CLR
17:02 70.0 °F 37.1 °F 30.16 in Calm     30% 0.00 in 0.0 W/m2 CLR
17:07 70.0 °F 37.1 °F 30.16 in Calm     30% 0.00 in 0.0 W/m2 CLR
17:12 70.0 °F 37.1 °F 30.16 in Calm     30% 0.00 in 0.0 W/m2 CLR
17:17 70.0 °F 37.1 °F 30.16 in Calm     30% 0.00 in 0.0 W/m2 CLR
17:22 70.0 °F 37.1 °F 30.16 in Calm     30% 0.00 in 0.0 W/m2 CLR
17:27 70.0 °F 37.1 °F 30.16 in Calm     30% 0.00 in 0.0 W/m2 CLR
17:32 70.0 °F 37.1 °F 30.16 in Calm     30% 0.00 in 0.0 W/m2 CLR
17:37 70.0 °F 37.1 °F 30.16 in Calm     30% 0.00 in 0.0 W/m2 CLR
17:42 70.0 °F 37.1 °F 30.16 in Calm     30% 0.00 in 0.0 W/m2 CLR
17:47 70.0 °F 37.1 °F 30.16 in Calm     30% 0.00 in 0.0 W/m2 CLR
17:52 70.0 °F 37.1 °F 30.16 in Calm     30% 0.00 in 0.0 W/m2 CLR
17:57 70.0 °F 37.1 °F 30.16 in Calm     30% 0.00 in 0.0 W/m2 CLR
18:02 64.9 °F 39.4 °F 30.19 in Calm     39% 0.00 in 0.0 W/m2 CLR
18:07 64.9 °F 39.4 °F 30.19 in Calm     39% 0.00 in 0.0 W/m2 CLR
18:12 64.9 °F 39.4 °F 30.19 in Calm     39% 0.00 in 0.0 W/m2 CLR
18:17 64.9 °F 39.4 °F 30.19 in Calm     39% 0.00 in 0.0 W/m2 CLR
18:22 64.9 °F 39.4 °F 30.19 in Calm     39% 0.00 in 0.0 W/m2 CLR
18:27 64.9 °F 39.4 °F 30.19 in Calm     39% 0.00 in 0.0 W/m2 CLR
18:32 64.9 °F 39.4 °F 30.19 in Calm     39% 0.00 in 0.0 W/m2 CLR
18:37 64.9 °F 39.4 °F 30.19 in Calm     39% 0.00 in 0.0 W/m2 CLR
18:42 64.9 °F 39.4 °F 30.19 in Calm     39% 0.00 in 0.0 W/m2 CLR
18:47 64.9 °F 39.4 °F 30.19 in Calm     39% 0.00 in 0.0 W/m2 CLR
18:52 64.9 °F 39.4 °F 30.19 in Calm     39% 0.00 in 0.0 W/m2 CLR
18:57 64.9 °F 39.4 °F 30.19 in Calm     39% 0.00 in 0.0 W/m2 CLR
19:02 62.1 °F 38.7 °F 30.22 in Calm     42% 0.00 in 0.0 W/m2 CLR
19:07 62.1 °F 38.7 °F 30.22 in Calm     42% 0.00 in 0.0 W/m2 CLR
19:12 62.1 °F 38.7 °F 30.22 in Calm     42% 0.00 in 0.0 W/m2 CLR
19:17 62.1 °F 38.7 °F 30.22 in Calm     42% 0.00 in 0.0 W/m2 CLR
19:22 62.1 °F 38.7 °F 30.22 in Calm     42% 0.00 in 0.0 W/m2 CLR
19:27 62.1 °F 38.7 °F 30.22 in Calm     42% 0.00 in 0.0 W/m2 CLR
19:32 62.1 °F 38.7 °F 30.22 in Calm     42% 0.00 in 0.0 W/m2 CLR
19:37 62.1 °F 38.7 °F 30.22 in Calm     42% 0.00 in 0.0 W/m2 CLR
19:42 62.1 °F 38.7 °F 30.22 in Calm     42% 0.00 in 0.0 W/m2 CLR
19:47 62.1 °F 38.7 °F 30.22 in Calm     42% 0.00 in 0.0 W/m2 CLR
19:52 62.1 °F 38.7 °F 30.22 in Calm     42% 0.00 in 0.0 W/m2 CLR
19:57 62.1 °F 38.7 °F 30.22 in Calm     42% 0.00 in 0.0 W/m2 CLR
20:02 60.1 °F 41.9 °F 30.24 in Calm     51% 0.00 in 0.0 W/m2 CLR
20:07 60.1 °F 41.9 °F 30.24 in Calm     51% 0.00 in 0.0 W/m2 CLR
20:12 60.1 °F 41.9 °F 30.24 in Calm     51% 0.00 in 0.0 W/m2 CLR
20:17 60.1 °F 41.9 °F 30.24 in Calm     51% 0.00 in 0.0 W/m2 CLR
20:22 60.1 °F 41.9 °F 30.24 in Calm     51% 0.00 in 0.0 W/m2 CLR
20:27 60.1 °F 41.9 °F 30.24 in Calm     51% 0.00 in 0.0 W/m2 CLR
20:32 60.1 °F 41.9 °F 30.24 in Calm     51% 0.00 in 0.0 W/m2 CLR
20:37 60.1 °F 41.9 °F 30.24 in Calm     51% 0.00 in 0.0 W/m2 CLR
20:42 60.1 °F 41.9 °F 30.24 in Calm     51% 0.00 in 0.0 W/m2 CLR
20:47 60.1 °F 41.9 °F 30.24 in Calm     51% 0.00 in 0.0 W/m2 CLR
20:52 60.1 °F 41.9 °F 30.24 in Calm     51% 0.00 in 0.0 W/m2 CLR
20:57 60.1 °F 41.9 °F 30.24 in Calm     51% 0.00 in 0.0 W/m2 CLR
21:02 57.9 °F 41.8 °F 30.27 in Calm     55% 0.00 in 0.0 W/m2 CLR
21:07 57.9 °F 41.8 °F 30.27 in Calm     55% 0.00 in 0.0 W/m2 CLR
21:12 57.9 °F 41.8 °F 30.27 in Calm     55% 0.00 in 0.0 W/m2 CLR
21:17 57.9 °F 41.8 °F 30.27 in Calm     55% 0.00 in 0.0 W/m2 CLR
21:22 57.9 °F 41.8 °F 30.27 in Calm     55% 0.00 in 0.0 W/m2 CLR
21:27 57.9 °F 41.8 °F 30.27 in Calm     55% 0.00 in 0.0 W/m2 CLR
21:32 57.9 °F 41.8 °F 30.27 in Calm     55% 0.00 in 0.0 W/m2 CLR
21:37 57.9 °F 41.8 °F 30.27 in Calm     55% 0.00 in 0.0 W/m2 CLR
21:42 57.9 °F 41.8 °F 30.27 in Calm     55% 0.00 in 0.0 W/m2 CLR
21:47 57.9 °F 41.8 °F 30.27 in Calm     55% 0.00 in 0.0 W/m2 CLR
21:52 57.9 °F 41.8 °F 30.27 in Calm     55% 0.00 in 0.0 W/m2 CLR
21:57 57.9 °F 41.8 °F 30.27 in Calm     55% 0.00 in 0.0 W/m2 CLR
22:02 55.9 °F 46.7 °F 30.28 in Calm     71% 0.00 in 0.0 W/m2 CLR
22:07 55.9 °F 46.7 °F 30.28 in Calm     71% 0.00 in 0.0 W/m2 CLR
22:12 55.9 °F 46.7 °F 30.28 in Calm     71% 0.00 in 0.0 W/m2 CLR
22:17 55.9 °F 46.7 °F 30.28 in Calm     71% 0.00 in 0.0 W/m2 CLR
22:22 55.9 °F 46.7 °F 30.28 in Calm     71% 0.00 in 0.0 W/m2 CLR
22:27 55.9 °F 46.7 °F 30.28 in Calm     71% 0.00 in 0.0 W/m2 CLR
22:32 55.9 °F 46.7 °F 30.28 in Calm     71% 0.00 in 0.0 W/m2 CLR
22:37 55.9 °F 46.7 °F 30.28 in Calm     71% 0.00 in 0.0 W/m2 CLR
22:42 55.9 °F 46.7 °F 30.28 in Calm     71% 0.00 in 0.0 W/m2 CLR
22:47 55.9 °F 46.7 °F 30.28 in Calm     71% 0.00 in 0.0 W/m2 CLR
22:52 55.9 °F 46.7 °F 30.28 in Calm     71% 0.00 in 0.0 W/m2 CLR
22:57 55.9 °F 46.7 °F 30.28 in Calm     71% 0.00 in 0.0 W/m2 CLR
23:02 53.1 °F 46.7 °F 30.29 in Calm     79% 0.00 in 0.0 W/m2 CLR
23:07 53.1 °F 46.7 °F 30.29 in Calm     79% 0.00 in 0.0 W/m2 CLR
23:12 53.1 °F 46.7 °F 30.29 in Calm     79% 0.00 in 0.0 W/m2 CLR
23:17 53.1 °F 46.7 °F 30.29 in Calm     79% 0.00 in 0.0 W/m2 CLR
23:22 53.1 °F 46.7 °F 30.29 in Calm     79% 0.00 in 0.0 W/m2 CLR
23:27 53.1 °F 46.7 °F 30.29 in Calm     79% 0.00 in 0.0 W/m2 CLR
23:32 53.1 °F 46.7 °F 30.29 in Calm     79% 0.00 in 0.0 W/m2 CLR
23:37 53.1 °F 46.7 °F 30.29 in Calm     79% 0.00 in 0.0 W/m2 CLR
23:42 53.1 °F 46.7 °F 30.29 in Calm     79% 0.00 in 0.0 W/m2 CLR
23:47 53.1 °F 46.7 °F 30.29 in Calm     79% 0.00 in 0.0 W/m2 CLR
23:52 53.1 °F 46.7 °F 30.29 in Calm     79% 0.00 in 0.0 W/m2 CLR
23:57 53.1 °F 46.7 °F 30.29 in Calm     79% 0.00 in 0.0 W/m2 CLR
Lake Mary, FL, USA
Compliments of Weather Underground - 1.75 mb